โตเกียว, ประเทศญี่ปุ่น

08:22 AM JST วัน เมษายน 22, 2015 (GMT +0900)
Tokyo (Haneda) International | | Change Station
CLOSE
Current Station
Airport
Location: Tokyo,
Elevation: 26 ft
Nearby Weather Stations

Elev 26 ft 35.55 °N, 139.78 °E | Updated 22 minutes ago

Scattered Clouds
มีเมฆคลุมเป็นบางส่วน
59 ฟาเรนไฮน์
Feels Like 59 ฟาเรนไฮน์
N
7
ลม ความผันแปร ลม from ทางทิศตะวันออกและทิศตะวันออกเฉียงเหนือ

วันนี้
High -- | Low -- ฟาเรนไฮน์
--% Chance of Precip.
Yesterday
High -- | Low -- ฟาเรนไฮน์
Precip. -- นิ้ว
5:00 AM 6:19 PM
เดือนเสี้ยว, 13% visible
ความดัน 30.12 นิ้ว
ทัศนวิสัย 6.2 ไมล์
เมฆ Few 3000 ft
มีเมฆคลุมเป็นบางส่วน 8000 ft
อุณหภูมิที่อากาศอาจจับตัวเป็นหยาดน้ำค้าง 46 ฟาเรนไฮน์
ความชื้น 63%
Rainfall 0.00 นิ้ว
Snow Depth Not available.
UV 3 out of 12
Pollen Not available.
Air Quality Not available.
Flu Activity Not available.
METAR RJTT 212300Z 06006KT 9999 FEW030 SCT080 15/08 Q1020 BECMG 08006KT RMK 1CU030 3AC080 A3013

More Conditions Fewer Conditions

ความดัน 30.12 นิ้ว
ทัศนวิสัย 6.2 ไมล์
เมฆ Few 3000 ft
มีเมฆคลุมเป็นบางส่วน 8000 ft
อุณหภูมิที่อากาศอาจจับตัวเป็นหยาดน้ำค้าง 46 ฟาเรนไฮน์
ความชื้น 63%
Rainfall 0.00 นิ้ว
Snow Depth Not available.
UV 3 out of 12
Pollen Not available.
Air Quality Not available.
Flu Activity Not available.
METAR RJTT 212300Z 06006KT 9999 FEW030 SCT080 15/08 Q1020 BECMG 08006KT RMK 1CU030 3AC080 A3013

More Conditions Fewer Conditions

10-Day Weather Forecast

Almanac

ดาราศาสตร์

Apr. 22, 2015 Rise Set
Actual Time
Civil Twilight
Nautical Twilight
Astronomical Twilight
Moon
Length Of Visible Light
ความยาวของวัน
Tomorrow will be .
, % of the Moon is Illuminated

Today's Extremes

Country Highs Country Lows

Community

WunderPhotos

Upload Photos

1,815,579 photos uploaded!

WunderBlogs® & News

Nearby

Air Quality

  Air Quality AQ Index Pollutant
Not available.

Snow Depth

Station Depth Elevation

Earthquake Activity

City Distance Mag. Time & Date
Minimum magnitude displayed is 2.5.

Coastal Water Temperatures

สถานที่ อุณหภูมิ

Stations

Nearby Weather Stations

Station Location Temp ลมหนาว อุณหภูมิที่อากาศอาจจับตัวเป็นหยาดน้ำค้าง ความชื้น ลม Precip. Elev ปรับปรุงล่าสุด Type